Rechercher aéroport 
image banner adimage banner adimage banner ad
image banner ad

97CA - Tejon Ag

Situé à Lebec, United States

ICAO - 97CA, IATA -

Données fournies par Airmate  

Information générale

Coordonnées: N38°47'57" W121°49'50"
Élévation : 36 feet MSL.
Variation magnétique : 14° East
Voir autres Aéroports à California

Données opérationnelles

Special qualification required
Heure actuelle UTC:
Heure actuelle locale:
Météo à : KSMF - Sacramento Intl ( 24 km )
METAR: KSMF 020653Z 15009KT 10SM CLR 19/11 A2999 RMK AO2 SLP154 T01940106
TAF: KSMF 020538Z 0206/0306 16011KT P6SM SKC FM021400 17005KT P6SM SKC FM022000 23005KT P6SM BKN250
Voir NOTAMs / SUP AIP / TFR affectant cet aéroport [VIEW]
Fréquences de communication: [VIEW]

Pistes:

Identifiant RWYQFULongueur (ft)Largeur (ft)SurfaceLDA (ft)
16270040CONC
34270040CONC

Coordonnées de l'aéroport

Adresse: Lebec United States

Vue satellite de 97CA